sensor_id;sensor_type;location;lat;lon;timestamp;pressure;altitude;pressure_sealevel;temperature;humidity
70546;BME280;58098;51.680;5.134;2023-06-26T00:01:29;101234.06;;;24.53;100.00
70546;BME280;58098;51.680;5.134;2023-06-26T00:03:56;101227.91;;;24.46;100.00
70546;BME280;58098;51.680;5.134;2023-06-26T00:06:21;101231.56;;;24.45;100.00
70546;BME280;58098;51.680;5.134;2023-06-26T00:08:50;101237.53;;;24.47;100.00
70546;BME280;58098;51.680;5.134;2023-06-26T00:11:15;101229.88;;;24.24;100.00
70546;BME280;58098;51.680;5.134;2023-06-26T00:13:40;101246.31;;;24.27;100.00
70546;BME280;58098;51.680;5.134;2023-06-26T00:16:07;101244.63;;;24.20;100.00
70546;BME280;58098;51.680;5.134;2023-06-26T00:18:32;101255.31;;;24.20;100.00
70546;BME280;58098;51.680;5.134;2023-06-26T00:20:57;101240.84;;;24.01;100.00
70546;BME280;58098;51.680;5.134;2023-06-26T00:23:23;101248.69;;;24.09;100.00
70546;BME280;58098;51.680;5.134;2023-06-26T00:25:48;101249.81;;;23.87;100.00
70546;BME280;58098;51.680;5.134;2023-06-26T00:28:13;101249.97;;;23.79;100.00
70546;BME280;58098;51.680;5.134;2023-06-26T00:30:39;101257.88;;;23.66;100.00
70546;BME280;58098;51.680;5.134;2023-06-26T00:33:04;101244.06;;;23.56;100.00
70546;BME280;58098;51.680;5.134;2023-06-26T00:35:29;101241.66;;;23.61;100.00
70546;BME280;58098;51.680;5.134;2023-06-26T00:37:55;101245.97;;;23.62;100.00
70546;BME280;58098;51.680;5.134;2023-06-26T00:40:20;101241.41;;;23.56;100.00
70546;BME280;58098;51.680;5.134;2023-06-26T00:42:46;101238.91;;;23.48;100.00
70546;BME280;58098;51.680;5.134;2023-06-26T00:45:11;101238.91;;;23.48;100.00
70546;BME280;58098;51.680;5.134;2023-06-26T00:47:37;101251.41;;;23.47;100.00
70546;BME280;58098;51.680;5.134;2023-06-26T00:50:04;101239.81;;;23.34;100.00
70546;BME280;58098;51.680;5.134;2023-06-26T00:52:30;101248.81;;;23.33;100.00
70546;BME280;58098;51.680;5.134;2023-06-26T00:54:56;101244.41;;;23.19;100.00
70546;BME280;58098;51.680;5.134;2023-06-26T00:57:21;101257.44;;;23.07;100.00
70546;BME280;58098;51.680;5.134;2023-06-26T00:59:48;101273.78;;;23.04;100.00
70546;BME280;58098;51.680;5.134;2023-06-26T01:02:13;101263.50;;;23.01;100.00
70546;BME280;58098;51.680;5.134;2023-06-26T01:04:51;101261.25;;;22.77;100.00
70546;BME280;58098;51.680;5.134;2023-06-26T01:07:18;101267.41;;;22.77;100.00
70546;BME280;58098;51.680;5.134;2023-06-26T01:09:46;101283.72;;;22.74;100.00
70546;BME280;58098;51.680;5.134;2023-06-26T01:12:12;101279.56;;;22.65;100.00
70546;BME280;58098;51.680;5.134;2023-06-26T01:14:38;101278.94;;;22.63;100.00
70546;BME280;58098;51.680;5.134;2023-06-26T01:17:03;101298.56;;;22.62;100.00
70546;BME280;58098;51.680;5.134;2023-06-26T01:19:30;101285.94;;;22.56;100.00
70546;BME280;58098;51.680;5.134;2023-06-26T01:22:36;101291.66;;;22.53;100.00
70546;BME280;58098;51.680;5.134;2023-06-26T01:27:38;101290.53;;;22.26;100.00
70546;BME280;58098;51.680;5.134;2023-06-26T01:30:05;101293.50;;;22.17;100.00
70546;BME280;58098;51.680;5.134;2023-06-26T01:32:32;101294.47;;;22.16;100.00
70546;BME280;58098;51.680;5.134;2023-06-26T01:34:59;101303.94;;;22.04;100.00
70546;BME280;58098;51.680;5.134;2023-06-26T01:37:24;101305.59;;;22.05;100.00
70546;BME280;58098;51.680;5.134;2023-06-26T01:39:50;101296.59;;;21.91;100.00
70546;BME280;58098;51.680;5.134;2023-06-26T01:42:16;101295.84;;;21.83;100.00
70546;BME280;58098;51.680;5.134;2023-06-26T01:44:45;101311.03;;;21.74;100.00
70546;BME280;58098;51.680;5.134;2023-06-26T01:47:15;101313.06;;;21.72;100.00
70546;BME280;58098;51.680;5.134;2023-06-26T01:50:06;101298.03;;;21.64;100.00
70546;BME280;58098;51.680;5.134;2023-06-26T01:52:41;101305.00;;;21.65;100.00
70546;BME280;58098;51.680;5.134;2023-06-26T01:55:21;101306.47;;;21.68;100.00
70546;BME280;58098;51.680;5.134;2023-06-26T01:57:52;101306.81;;;21.50;100.00
70546;BME280;58098;51.680;5.134;2023-06-26T02:00:19;101309.16;;;21.45;100.00
70546;BME280;58098;51.680;5.134;2023-06-26T02:02:46;101308.59;;;21.35;100.00
70546;BME280;58098;51.680;5.134;2023-06-26T02:05:12;101307.94;;;21.33;100.00
70546;BME280;58098;51.680;5.134;2023-06-26T02:07:38;101311.59;;;21.32;100.00
70546;BME280;58098;51.680;5.134;2023-06-26T02:10:03;101300.47;;;21.14;100.00
70546;BME280;58098;51.680;5.134;2023-06-26T02:12:29;101310.03;;;21.23;100.00
70546;BME280;58098;51.680;5.134;2023-06-26T02:14:54;101310.06;;;21.15;100.00
70546;BME280;58098;51.680;5.134;2023-06-26T02:17:19;101303.44;;;21.19;100.00
70546;BME280;58098;51.680;5.134;2023-06-26T02:19:45;101299.47;;;21.15;100.00
70546;BME280;58098;51.680;5.134;2023-06-26T02:22:16;101307.63;;;21.14;100.00
70546;BME280;58098;51.680;5.134;2023-06-26T02:24:43;101308.50;;;21.06;100.00
70546;BME280;58098;51.680;5.134;2023-06-26T02:27:09;101323.88;;;21.11;100.00
70546;BME280;58098;51.680;5.134;2023-06-26T02:29:34;101320.78;;;20.99;100.00
70546;BME280;58098;51.680;5.134;2023-06-26T02:32:00;101332.59;;;20.96;100.00
70546;BME280;58098;51.680;5.134;2023-06-26T02:34:25;101328.69;;;20.84;100.00
70546;BME280;58098;51.680;5.134;2023-06-26T02:36:50;101343.44;;;20.87;100.00
70546;BME280;58098;51.680;5.134;2023-06-26T02:39:19;101334.00;;;20.84;100.00
70546;BME280;58098;51.680;5.134;2023-06-26T02:41:44;101345.56;;;20.91;100.00
70546;BME280;58098;51.680;5.134;2023-06-26T02:44:10;101336.13;;;20.89;100.00
70546;BME280;58098;51.680;5.134;2023-06-26T02:46:37;101344.03;;;20.97;100.00
70546;BME280;58098;51.680;5.134;2023-06-26T02:49:02;101350.53;;;20.94;100.00
70546;BME280;58098;51.680;5.134;2023-06-26T02:51:28;101354.66;;;20.97;100.00
70546;BME280;58098;51.680;5.134;2023-06-26T02:53:53;101351.59;;;20.85;100.00
70546;BME280;58098;51.680;5.134;2023-06-26T02:56:19;101349.09;;;20.84;100.00
70546;BME280;58098;51.680;5.134;2023-06-26T02:58:44;101354.72;;;20.81;100.00
70546;BME280;58098;51.680;5.134;2023-06-26T03:01:09;101358.72;;;20.85;100.00
70546;BME280;58098;51.680;5.134;2023-06-26T03:03:35;101352.97;;;20.73;100.00
70546;BME280;58098;51.680;5.134;2023-06-26T03:06:06;101363.88;;;20.78;100.00
70546;BME280;58098;51.680;5.134;2023-06-26T03:08:32;101359.09;;;20.74;100.00
70546;BME280;58098;51.680;5.134;2023-06-26T03:10:57;101357.13;;;20.76;100.00
70546;BME280;58098;51.680;5.134;2023-06-26T03:13:22;101343.53;;;20.71;100.00
70546;BME280;58098;51.680;5.134;2023-06-26T03:15:48;101346.13;;;20.79;100.00
70546;BME280;58098;51.680;5.134;2023-06-26T03:18:13;101357.44;;;20.73;100.00
70546;BME280;58098;51.680;5.134;2023-06-26T03:20:39;101332.94;;;20.71;100.00
70546;BME280;58098;51.680;5.134;2023-06-26T03:23:04;101352.19;;;20.65;100.00
70546;BME280;58098;51.680;5.134;2023-06-26T03:25:29;101360.47;;;20.62;100.00
70546;BME280;58098;51.680;5.134;2023-06-26T03:27:55;101357.38;;;20.58;100.00
70546;BME280;58098;51.680;5.134;2023-06-26T03:30:20;101362.50;;;20.52;100.00
70546;BME280;58098;51.680;5.134;2023-06-26T03:32:45;101358.91;;;20.45;100.00
70546;BME280;58098;51.680;5.134;2023-06-26T03:35:11;101356.94;;;20.38;100.00
70546;BME280;58098;51.680;5.134;2023-06-26T03:37:36;101359.75;;;20.37;100.00
70546;BME280;58098;51.680;5.134;2023-06-26T03:40:02;101367.09;;;20.27;100.00
70546;BME280;58098;51.680;5.134;2023-06-26T03:42:29;101364.94;;;20.22;100.00
70546;BME280;58098;51.680;5.134;2023-06-26T03:44:55;101372.75;;;20.24;100.00
70546;BME280;58098;51.680;5.134;2023-06-26T03:47:20;101369.41;;;20.14;100.00
70546;BME280;58098;51.680;5.134;2023-06-26T03:49:45;101387.81;;;20.23;100.00
70546;BME280;58098;51.680;5.134;2023-06-26T03:52:11;101370.94;;;20.24;100.00
70546;BME280;58098;51.680;5.134;2023-06-26T03:54:36;101379.84;;;20.31;100.00
70546;BME280;58098;51.680;5.134;2023-06-26T03:57:01;101386.97;;;20.31;100.00
70546;BME280;58098;51.680;5.134;2023-06-26T03:59:27;101387.16;;;20.29;100.00
70546;BME280;58098;51.680;5.134;2023-06-26T04:01:52;101383.16;;;20.33;100.00
70546;BME280;58098;51.680;5.134;2023-06-26T04:04:18;101397.75;;;20.29;100.00
70546;BME280;58098;51.680;5.134;2023-06-26T04:06:43;101386.16;;;20.22;100.00
70546;BME280;58098;51.680;5.134;2023-06-26T04:09:09;101397.59;;;20.15;100.00
70546;BME280;58098;51.680;5.134;2023-06-26T04:11:34;101402.06;;;20.14;100.00
70546;BME280;58098;51.680;5.134;2023-06-26T04:13:59;101404.38;;;20.17;100.00
70546;BME280;58098;51.680;5.134;2023-06-26T04:16:25;101410.66;;;20.08;100.00
70546;BME280;58098;51.680;5.134;2023-06-26T04:18:51;101416.34;;;20.05;100.00
70546;BME280;58098;51.680;5.134;2023-06-26T04:21:17;101397.47;;;20.00;100.00
70546;BME280;58098;51.680;5.134;2023-06-26T04:23:43;101409.69;;;20.01;100.00
70546;BME280;58098;51.680;5.134;2023-06-26T04:26:08;101419.13;;;19.96;100.00
70546;BME280;58098;51.680;5.134;2023-06-26T04:28:34;101421.63;;;19.89;100.00
70546;BME280;58098;51.680;5.134;2023-06-26T04:31:01;101405.59;;;19.83;100.00
70546;BME280;58098;51.680;5.134;2023-06-26T04:33:28;101426.59;;;19.92;100.00
70546;BME280;58098;51.680;5.134;2023-06-26T04:35:54;101406.91;;;19.87;100.00
70546;BME280;58098;51.680;5.134;2023-06-26T04:38:19;101423.31;;;19.90;100.00
70546;BME280;58098;51.680;5.134;2023-06-26T04:40:47;101431.91;;;19.84;100.00
70546;BME280;58098;51.680;5.134;2023-06-26T04:43:12;101439.53;;;19.95;100.00
70546;BME280;58098;51.680;5.134;2023-06-26T04:45:37;101447.94;;;19.99;100.00
70546;BME280;58098;51.680;5.134;2023-06-26T04:48:03;101449.75;;;20.06;100.00
70546;BME280;58098;51.680;5.134;2023-06-26T04:50:30;101449.13;;;20.04;100.00
70546;BME280;58098;51.680;5.134;2023-06-26T04:52:56;101443.47;;;19.91;100.00
70546;BME280;58098;51.680;5.134;2023-06-26T04:55:24;101453.09;;;19.92;100.00
70546;BME280;58098;51.680;5.134;2023-06-26T04:57:50;101451.44;;;19.91;100.00
70546;BME280;58098;51.680;5.134;2023-06-26T05:00:15;101449.78;;;19.90;100.00
70546;BME280;58098;51.680;5.134;2023-06-26T05:02:41;101441.34;;;19.87;100.00
70546;BME280;58098;51.680;5.134;2023-06-26T05:05:06;101453.56;;;19.96;100.00
70546;BME280;58098;51.680;5.134;2023-06-26T05:07:32;101460.03;;;20.09;100.00
70546;BME280;58098;51.680;5.134;2023-06-26T05:09:57;101460.38;;;20.22;100.00
70546;BME280;58098;51.680;5.134;2023-06-26T05:12:22;101460.88;;;20.26;100.00
70546;BME280;58098;51.680;5.134;2023-06-26T05:14:48;101454.91;;;20.32;100.00
70546;BME280;58098;51.680;5.134;2023-06-26T05:17:14;101474.94;;;20.34;100.00
70546;BME280;58098;51.680;5.134;2023-06-26T05:19:39;101470.47;;;20.19;100.00
70546;BME280;58098;51.680;5.134;2023-06-26T05:22:06;101480.88;;;20.20;100.00
70546;BME280;58098;51.680;5.134;2023-06-26T05:24:35;101477.75;;;20.17;100.00
70546;BME280;58098;51.680;5.134;2023-06-26T05:27:01;101480.09;;;20.20;100.00
70546;BME280;58098;51.680;5.134;2023-06-26T05:29:28;101484.91;;;20.24;100.00
70546;BME280;58098;51.680;5.134;2023-06-26T05:31:56;101497.66;;;20.29;100.00
70546;BME280;58098;51.680;5.134;2023-06-26T05:34:25;101491.34;;;20.22;100.00
70546;BME280;58098;51.680;5.134;2023-06-26T05:36:55;101501.44;;;20.18;100.00
70546;BME280;58098;51.680;5.134;2023-06-26T05:39:22;101507.56;;;20.19;100.00
70546;BME280;58098;51.680;5.134;2023-06-26T05:41:48;101506.72;;;20.18;100.00
70546;BME280;58098;51.680;5.134;2023-06-26T05:44:13;101507.09;;;20.23;100.00
70546;BME280;58098;51.680;5.134;2023-06-26T05:46:38;101504.94;;;20.27;100.00
70546;BME280;58098;51.680;5.134;2023-06-26T05:49:04;101505.09;;;20.33;100.00
70546;BME280;58098;51.680;5.134;2023-06-26T05:51:29;101489.84;;;20.27;100.00
70546;BME280;58098;51.680;5.134;2023-06-26T05:53:55;101521.16;;;20.40;100.00
70546;BME280;58098;51.680;5.134;2023-06-26T05:56:21;101523.81;;;20.48;100.00
70546;BME280;58098;51.680;5.134;2023-06-26T05:58:47;101520.31;;;20.64;100.00
70546;BME280;58098;51.680;5.134;2023-06-26T06:01:12;101535.31;;;20.87;100.00
70546;BME280;58098;51.680;5.134;2023-06-26T06:03:39;101535.91;;;21.14;100.00
70546;BME280;58098;51.680;5.134;2023-06-26T06:06:04;101542.38;;;21.19;100.00
70546;BME280;58098;51.680;5.134;2023-06-26T06:08:30;101556.66;;;21.10;100.00
70546;BME280;58098;51.680;5.134;2023-06-26T06:10:55;101543.53;;;21.00;100.00
70546;BME280;58098;51.680;5.134;2023-06-26T06:13:21;101539.25;;;20.99;100.00
70546;BME280;58098;51.680;5.134;2023-06-26T06:15:46;101549.69;;;21.09;100.00
70546;BME280;58098;51.680;5.134;2023-06-26T06:18:11;101537.13;;;20.95;100.00
70546;BME280;58098;51.680;5.134;2023-06-26T06:20:37;101543.41;;;21.02;100.00
70546;BME280;58098;51.680;5.134;2023-06-26T06:23:02;101538.41;;;20.99;100.00
70546;BME280;58098;51.680;5.134;2023-06-26T06:25:27;101550.66;;;21.16;100.00
70546;BME280;58098;51.680;5.134;2023-06-26T06:27:53;101554.94;;;21.25;100.00
70546;BME280;58098;51.680;5.134;2023-06-26T06:30:18;101551.53;;;21.39;100.00
70546;BME280;58098;51.680;5.134;2023-06-26T06:32:43;101564.16;;;21.37;100.00
70546;BME280;58098;51.680;5.134;2023-06-26T06:35:09;101579.44;;;21.43;100.00
70546;BME280;58098;51.680;5.134;2023-06-26T06:37:37;101577.41;;;21.45;100.00
70546;BME280;58098;51.680;5.134;2023-06-26T06:40:04;101574.78;;;21.37;100.00
70546;BME280;58098;51.680;5.134;2023-06-26T06:42:31;101586.56;;;21.43;100.00
70546;BME280;58098;51.680;5.134;2023-06-26T06:44:57;101586.56;;;21.43;100.00
70546;BME280;58098;51.680;5.134;2023-06-26T06:47:22;101587.41;;;21.43;100.00
70546;BME280;58098;51.680;5.134;2023-06-26T06:49:47;101586.88;;;21.48;100.00
70546;BME280;58098;51.680;5.134;2023-06-26T06:52:13;101611.75;;;21.47;100.00
70546;BME280;58098;51.680;5.134;2023-06-26T06:54:55;101609.97;;;21.39;100.00
70546;BME280;58098;51.680;5.134;2023-06-26T06:57:21;101624.31;;;21.22;100.00
70546;BME280;58098;51.680;5.134;2023-06-26T06:59:47;101629.81;;;21.13;100.00
70546;BME280;58098;51.680;5.134;2023-06-26T07:02:14;101610.41;;;21.04;100.00
70546;BME280;58098;51.680;5.134;2023-06-26T07:04:40;101618.41;;;20.88;100.00
70546;BME280;58098;51.680;5.134;2023-06-26T07:07:06;101634.34;;;20.88;100.00
70546;BME280;58098;51.680;5.134;2023-06-26T07:09:31;101627.34;;;21.11;100.00
70546;BME280;58098;51.680;5.134;2023-06-26T07:11:56;101636.25;;;21.34;100.00
70546;BME280;58098;51.680;5.134;2023-06-26T07:14:23;101645.53;;;21.30;100.00
70546;BME280;58098;51.680;5.134;2023-06-26T07:16:48;101640.31;;;21.45;100.00
70546;BME280;58098;51.680;5.134;2023-06-26T07:19:14;101645.44;;;21.54;100.00
70546;BME280;58098;51.680;5.134;2023-06-26T07:21:39;101653.38;;;21.62;100.00
70546;BME280;58098;51.680;5.134;2023-06-26T07:24:06;101661.31;;;21.70;100.00
70546;BME280;58098;51.680;5.134;2023-06-26T07:26:31;101664.91;;;21.86;100.00
70546;BME280;58098;51.680;5.134;2023-06-26T07:28:57;101648.63;;;21.81;100.00
70546;BME280;58098;51.680;5.134;2023-06-26T07:31:22;101675.53;;;21.86;100.00
70546;BME280;58098;51.680;5.134;2023-06-26T07:33:47;101666.88;;;21.84;100.00
70546;BME280;58098;51.680;5.134;2023-06-26T07:36:13;101667.56;;;21.86;100.00
70546;BME280;58098;51.680;5.134;2023-06-26T07:38:38;101669.13;;;21.72;100.00
70546;BME280;58098;51.680;5.134;2023-06-26T07:41:03;101674.13;;;21.59;100.00
70546;BME280;58098;51.680;5.134;2023-06-26T07:43:29;101684.69;;;21.36;100.00
70546;BME280;58098;51.680;5.134;2023-06-26T07:45:54;101690.34;;;21.25;100.00
70546;BME280;58098;51.680;5.134;2023-06-26T07:48:20;101683.00;;;21.43;100.00
70546;BME280;58098;51.680;5.134;2023-06-26T07:50:45;101697.25;;;21.50;100.00
70546;BME280;58098;51.680;5.134;2023-06-26T07:53:10;101686.03;;;21.71;100.00
70546;BME280;58098;51.680;5.134;2023-06-26T07:55:36;101701.97;;;22.18;100.00
70546;BME280;58098;51.680;5.134;2023-06-26T07:58:01;101693.28;;;22.24;100.00
70546;BME280;58098;51.680;5.134;2023-06-26T08:00:26;101702.88;;;22.33;100.00
70546;BME280;58098;51.680;5.134;2023-06-26T08:02:52;101698.91;;;22.29;100.00
70546;BME280;58098;51.680;5.134;2023-06-26T08:05:17;101705.53;;;22.56;100.00
70546;BME280;58098;51.680;5.134;2023-06-26T08:07:43;101707.66;;;22.60;100.00
70546;BME280;58098;51.680;5.134;2023-06-26T08:10:09;101715.59;;;22.46;100.00
70546;BME280;58098;51.680;5.134;2023-06-26T08:12:34;101705.63;;;22.40;100.00
70546;BME280;58098;51.680;5.134;2023-06-26T08:15:01;101732.13;;;22.33;100.00
70546;BME280;58098;51.680;5.134;2023-06-26T08:17:28;101737.91;;;22.06;100.00
70546;BME280;58098;51.680;5.134;2023-06-26T08:19:53;101716.63;;;22.14;100.00
70546;BME280;58098;51.680;5.134;2023-06-26T08:22:18;101709.72;;;21.97;100.00
70546;BME280;58098;51.680;5.134;2023-06-26T08:24:44;101711.72;;;21.95;100.00
70546;BME280;58098;51.680;5.134;2023-06-26T08:27:09;101710.41;;;21.91;100.00
70546;BME280;58098;51.680;5.134;2023-06-26T08:29:34;101712.06;;;21.92;100.00
70546;BME280;58098;51.680;5.134;2023-06-26T08:31:59;101717.91;;;22.18;100.00
70546;BME280;58098;51.680;5.134;2023-06-26T08:34:26;101720.81;;;22.54;100.00
70546;BME280;58098;51.680;5.134;2023-06-26T08:36:52;101721.31;;;22.65;100.00
70546;BME280;58098;51.680;5.134;2023-06-26T08:39:18;101721.16;;;22.81;100.00
70546;BME280;58098;51.680;5.134;2023-06-26T08:41:44;101717.44;;;22.68;100.00
70546;BME280;58098;51.680;5.134;2023-06-26T08:44:09;101727.41;;;22.66;100.00
70546;BME280;58098;51.680;5.134;2023-06-26T08:46:36;101733.88;;;22.49;100.00
70546;BME280;58098;51.680;5.134;2023-06-26T08:49:07;101737.38;;;22.72;100.00
70546;BME280;58098;51.680;5.134;2023-06-26T08:51:35;101733.41;;;23.05;100.00
70546;BME280;58098;51.680;5.134;2023-06-26T08:54:05;101740.53;;;23.27;100.00
70546;BME280;58098;51.680;5.134;2023-06-26T08:56:36;101740.38;;;23.29;100.00
70546;BME280;58098;51.680;5.134;2023-06-26T08:59:03;101743.00;;;23.14;100.00
70546;BME280;58098;51.680;5.134;2023-06-26T09:01:30;101732.53;;;23.13;100.00
70546;BME280;58098;51.680;5.134;2023-06-26T09:03:56;101733.81;;;22.79;100.00
70546;BME280;58098;51.680;5.134;2023-06-26T09:06:22;101740.56;;;22.90;100.00
70546;BME280;58098;51.680;5.134;2023-06-26T09:08:47;101748.41;;;23.06;100.00
70546;BME280;58098;51.680;5.134;2023-06-26T09:11:13;101749.38;;;23.28;100.00
70546;BME280;58098;51.680;5.134;2023-06-26T09:13:39;101761.38;;;22.86;100.00
70546;BME280;58098;51.680;5.134;2023-06-26T09:16:08;101766.13;;;22.76;100.00
70546;BME280;58098;51.680;5.134;2023-06-26T09:18:34;101760.00;;;23.13;100.00
70546;BME280;58098;51.680;5.134;2023-06-26T09:21:00;101748.22;;;23.08;100.00
70546;BME280;58098;51.680;5.134;2023-06-26T09:23:26;101736.84;;;23.14;100.00
70546;BME280;58098;51.680;5.134;2023-06-26T09:25:51;101758.09;;;23.22;100.00
70546;BME280;58098;51.680;5.134;2023-06-26T09:28:17;101768.25;;;23.41;100.00
70546;BME280;58098;51.680;5.134;2023-06-26T09:30:44;101758.13;;;23.65;100.00
70546;BME280;58098;51.680;5.134;2023-06-26T09:33:15;101757.97;;;23.82;100.00
70546;BME280;58098;51.680;5.134;2023-06-26T09:35:41;101797.97;;;23.82;100.00
70546;BME280;58098;51.680;5.134;2023-06-26T09:38:07;101769.47;;;23.53;100.00
70546;BME280;58098;51.680;5.134;2023-06-26T09:40:32;101781.31;;;23.50;100.00
70546;BME280;58098;51.680;5.134;2023-06-26T09:43:04;101796.78;;;23.84;100.00
70546;BME280;58098;51.680;5.134;2023-06-26T09:45:34;101799.44;;;23.70;100.00
70546;BME280;58098;51.680;5.134;2023-06-26T09:48:03;101807.34;;;23.63;100.00
70546;BME280;58098;51.680;5.134;2023-06-26T09:50:29;101799.88;;;23.58;100.00
70546;BME280;58098;51.680;5.134;2023-06-26T09:52:55;101792.25;;;23.41;100.00
70546;BME280;58098;51.680;5.134;2023-06-26T09:55:21;101804.75;;;23.55;100.00
70546;BME280;58098;51.680;5.134;2023-06-26T09:57:49;101792.63;;;23.67;100.00
70546;BME280;58098;51.680;5.134;2023-06-26T10:00:15;101816.78;;;23.80;100.00
70546;BME280;58098;51.680;5.134;2023-06-26T10:02:41;101795.66;;;23.64;100.00
70546;BME280;58098;51.680;5.134;2023-06-26T10:05:06;101800.25;;;23.55;100.00
70546;BME280;58098;51.680;5.134;2023-06-26T10:07:32;101785.25;;;23.17;100.00
70546;BME280;58098;51.680;5.134;2023-06-26T10:10:00;101838.59;;;23.69;100.00
70546;BME280;58098;51.680;5.134;2023-06-26T10:12:29;101839.59;;;23.97;100.00
70546;BME280;58098;51.680;5.134;2023-06-26T10:14:56;101824.06;;;23.86;100.00
70546;BME280;58098;51.680;5.134;2023-06-26T10:17:25;101833.47;;;23.82;100.00
70546;BME280;58098;51.680;5.134;2023-06-26T10:19:50;101810.53;;;23.58;100.00
70546;BME280;58098;51.680;5.134;2023-06-26T10:22:20;101823.72;;;23.89;100.00
70546;BME280;58098;51.680;5.134;2023-06-26T10:24:47;101813.38;;;23.57;100.00
70546;BME280;58098;51.680;5.134;2023-06-26T10:27:20;101825.34;;;24.34;100.00
70546;BME280;58098;51.680;5.134;2023-06-26T10:29:49;101828.09;;;24.76;100.00
70546;BME280;58098;51.680;5.134;2023-06-26T10:32:17;101832.75;;;25.31;100.00
70546;BME280;58098;51.680;5.134;2023-06-26T10:34:43;101844.09;;;25.54;100.00
70546;BME280;58098;51.680;5.134;2023-06-26T10:37:09;101848.31;;;25.21;91.07
70546;BME280;58098;51.680;5.134;2023-06-26T10:39:51;101834.69;;;24.95;98.03
70546;BME280;58098;51.680;5.134;2023-06-26T10:42:20;101832.53;;;25.05;100.00
70546;BME280;58098;51.680;5.134;2023-06-26T10:45:09;101822.72;;;25.33;97.24
70546;BME280;58098;51.680;5.134;2023-06-26T10:47:34;101818.63;;;24.74;83.43
70546;BME280;58098;51.680;5.134;2023-06-26T10:52:45;101841.19;;;24.86;95.25
70546;BME280;58098;51.680;5.134;2023-06-26T10:55:11;101855.00;;;24.75;89.84
70546;BME280;58098;51.680;5.134;2023-06-26T10:57:36;101852.25;;;24.68;97.78
70546;BME280;58098;51.680;5.134;2023-06-26T11:00:10;101850.13;;;24.64;99.36
70546;BME280;58098;51.680;5.134;2023-06-26T11:02:51;101859.31;;;24.76;100.00
70546;BME280;58098;51.680;5.134;2023-06-26T11:05:27;101842.44;;;24.90;100.00
70546;BME280;58098;51.680;5.134;2023-06-26T11:08:04;101864.31;;;25.00;100.00
70546;BME280;58098;51.680;5.134;2023-06-26T11:10:51;101845.56;;;24.93;100.00
70546;BME280;58098;51.680;5.134;2023-06-26T11:13:18;101846.81;;;24.41;100.00
70546;BME280;58098;51.680;5.134;2023-06-26T11:15:49;101857.28;;;24.42;100.00
70546;BME280;58098;51.680;5.134;2023-06-26T11:18:15;101874.78;;;24.30;97.20
70546;BME280;58098;51.680;5.134;2023-06-26T11:20:40;101864.34;;;24.06;97.18
70546;BME280;58098;51.680;5.134;2023-06-26T11:23:08;101868.94;;;23.83;100.00
70546;BME280;58098;51.680;5.134;2023-06-26T11:25:35;101877.50;;;23.93;100.00
70546;BME280;58098;51.680;5.134;2023-06-26T11:28:01;101873.88;;;24.08;100.00
70546;BME280;58098;51.680;5.134;2023-06-26T11:30:29;101890.09;;;23.84;100.00
70546;BME280;58098;51.680;5.134;2023-06-26T11:33:05;101893.88;;;23.90;100.00
70546;BME280;58098;51.680;5.134;2023-06-26T11:35:31;101885.81;;;24.12;100.00
70546;BME280;58098;51.680;5.134;2023-06-26T11:37:58;101897.50;;;24.41;100.00
70546;BME280;58098;51.680;5.134;2023-06-26T11:40:26;101889.47;;;25.06;100.00
70546;BME280;58098;51.680;5.134;2023-06-26T11:42:58;101898.03;;;25.43;100.00
70546;BME280;58098;51.680;5.134;2023-06-26T11:45:27;101896.69;;;26.03;100.00
70546;BME280;58098;51.680;5.134;2023-06-26T11:47:54;101902.00;;;25.96;100.00
70546;BME280;58098;51.680;5.134;2023-06-26T11:50:20;101929.19;;;25.72;100.00
70546;BME280;58098;51.680;5.134;2023-06-26T11:52:53;101915.25;;;25.13;96.61
70546;BME280;58098;51.680;5.134;2023-06-26T11:55:18;101926.03;;;24.55;98.07
70546;BME280;58098;51.680;5.134;2023-06-26T11:57:48;101947.44;;;24.17;100.00
70546;BME280;58098;51.680;5.134;2023-06-26T12:00:15;101911.44;;;23.99;100.00
70546;BME280;58098;51.680;5.134;2023-06-26T12:02:47;101921.41;;;24.19;100.00
70546;BME280;58098;51.680;5.134;2023-06-26T12:05:16;101934.41;;;24.37;100.00
70546;BME280;58098;51.680;5.134;2023-06-26T12:07:43;101944.72;;;24.25;100.00
70546;BME280;58098;51.680;5.134;2023-06-26T12:10:13;101942.69;;;24.57;100.00
70546;BME280;58098;51.680;5.134;2023-06-26T12:12:40;101922.72;;;24.53;100.00
70546;BME280;58098;51.680;5.134;2023-06-26T12:15:07;101926.94;;;25.12;100.00
70546;BME280;58098;51.680;5.134;2023-06-26T12:17:37;101972.41;;;24.54;93.64
70546;BME280;58098;51.680;5.134;2023-06-26T12:20:03;101943.69;;;24.26;97.30
70546;BME280;58098;51.680;5.134;2023-06-26T12:22:34;101952.75;;;24.03;100.00
70546;BME280;58098;51.680;5.134;2023-06-26T12:25:00;101929.97;;;24.29;100.00
70546;BME280;58098;51.680;5.134;2023-06-26T12:27:25;101941.78;;;24.35;100.00
70546;BME280;58098;51.680;5.134;2023-06-26T12:29:52;101937.25;;;24.65;83.53
70546;BME280;58098;51.680;5.134;2023-06-26T12:32:19;101934.09;;;24.76;82.79
70546;BME280;58098;51.680;5.134;2023-06-26T12:34:49;101936.03;;;24.97;89.49
70546;BME280;58098;51.680;5.134;2023-06-26T12:37:18;101910.88;;;24.91;83.65
70546;BME280;58098;51.680;5.134;2023-06-26T12:39:52;101947.75;;;24.81;87.08
70546;BME280;58098;51.680;5.134;2023-06-26T12:42:19;101958.78;;;24.63;93.07
70546;BME280;58098;51.680;5.134;2023-06-26T12:44:45;101948.34;;;24.98;73.03